sensor_id;sensor_type;location;lat;lon;timestamp;P1;durP1;ratioP1;P2;durP2;ratioP2
60867;SDS011;46702;48.370;10.794;2023-11-18T00:01:25;1.67;;;1.58;;
60867;SDS011;46702;48.370;10.794;2023-11-18T00:03:55;1.60;;;1.50;;
60867;SDS011;46702;48.370;10.794;2023-11-18T00:06:21;3.13;;;2.03;;
60867;SDS011;46702;48.370;10.794;2023-11-18T00:08:47;3.00;;;1.73;;
60867;SDS011;46702;48.370;10.794;2023-11-18T00:11:13;1.70;;;1.60;;
60867;SDS011;46702;48.370;10.794;2023-11-18T00:13:38;1.98;;;1.73;;
60867;SDS011;46702;48.370;10.794;2023-11-18T00:16:05;1.52;;;1.42;;
60867;SDS011;46702;48.370;10.794;2023-11-18T00:18:31;1.80;;;1.70;;
60867;SDS011;46702;48.370;10.794;2023-11-18T00:20:58;1.20;;;1.20;;
60867;SDS011;46702;48.370;10.794;2023-11-18T00:23:27;1.77;;;1.67;;
60867;SDS011;46702;48.370;10.794;2023-11-18T00:26:02;1.75;;;1.63;;
60867;SDS011;46702;48.370;10.794;2023-11-18T00:28:35;1.13;;;1.13;;
60867;SDS011;46702;48.370;10.794;2023-11-18T00:31:06;1.88;;;1.77;;
60867;SDS011;46702;48.370;10.794;2023-11-18T00:33:32;1.65;;;1.55;;
60867;SDS011;46702;48.370;10.794;2023-11-18T00:36:01;1.83;;;1.73;;
60867;SDS011;46702;48.370;10.794;2023-11-18T00:38:30;0.95;;;0.95;;
60867;SDS011;46702;48.370;10.794;2023-11-18T00:43:22;1.33;;;1.27;;
60867;SDS011;46702;48.370;10.794;2023-11-18T00:45:47;1.73;;;1.60;;
60867;SDS011;46702;48.370;10.794;2023-11-18T00:48:19;1.92;;;1.83;;
60867;SDS011;46702;48.370;10.794;2023-11-18T00:50:45;3.35;;;1.80;;
60867;SDS011;46702;48.370;10.794;2023-11-18T00:53:11;1.95;;;1.75;;
60867;SDS011;46702;48.370;10.794;2023-11-18T00:55:37;3.53;;;1.80;;
60867;SDS011;46702;48.370;10.794;2023-11-18T00:58:02;3.42;;;1.50;;
60867;SDS011;46702;48.370;10.794;2023-11-18T01:00:29;1.77;;;1.65;;
60867;SDS011;46702;48.370;10.794;2023-11-18T01:02:55;1.67;;;1.50;;
60867;SDS011;46702;48.370;10.794;2023-11-18T01:05:21;2.17;;;1.98;;
60867;SDS011;46702;48.370;10.794;2023-11-18T01:07:47;1.48;;;1.38;;
60867;SDS011;46702;48.370;10.794;2023-11-18T01:10:13;2.13;;;1.55;;
60867;SDS011;46702;48.370;10.794;2023-11-18T01:12:39;1.80;;;1.67;;
60867;SDS011;46702;48.370;10.794;2023-11-18T01:15:06;3.20;;;2.17;;
60867;SDS011;46702;48.370;10.794;2023-11-18T01:17:32;2.72;;;1.88;;
60867;SDS011;46702;48.370;10.794;2023-11-18T01:19:58;1.85;;;1.60;;
60867;SDS011;46702;48.370;10.794;2023-11-18T01:22:28;2.03;;;1.90;;
60867;SDS011;46702;48.370;10.794;2023-11-18T01:24:57;2.55;;;2.00;;
60867;SDS011;46702;48.370;10.794;2023-11-18T01:27:26;2.05;;;1.83;;
60867;SDS011;46702;48.370;10.794;2023-11-18T01:29:52;1.85;;;1.75;;
60867;SDS011;46702;48.370;10.794;2023-11-18T01:32:18;2.03;;;1.80;;
60867;SDS011;46702;48.370;10.794;2023-11-18T01:34:44;2.72;;;2.13;;
60867;SDS011;46702;48.370;10.794;2023-11-18T01:37:15;2.25;;;1.80;;
60867;SDS011;46702;48.370;10.794;2023-11-18T01:39:41;2.60;;;2.30;;
60867;SDS011;46702;48.370;10.794;2023-11-18T01:42:07;1.60;;;1.50;;
60867;SDS011;46702;48.370;10.794;2023-11-18T01:44:32;1.67;;;1.58;;
60867;SDS011;46702;48.370;10.794;2023-11-18T01:47:01;1.85;;;1.75;;
60867;SDS011;46702;48.370;10.794;2023-11-18T01:49:30;1.77;;;1.67;;
60867;SDS011;46702;48.370;10.794;2023-11-18T01:52:05;2.17;;;1.67;;
60867;SDS011;46702;48.370;10.794;2023-11-18T01:54:32;1.90;;;1.80;;
60867;SDS011;46702;48.370;10.794;2023-11-18T01:56:59;2.25;;;2.05;;
60867;SDS011;46702;48.370;10.794;2023-11-18T01:59:31;2.92;;;2.05;;
60867;SDS011;46702;48.370;10.794;2023-11-18T02:02:01;2.30;;;2.10;;
60867;SDS011;46702;48.370;10.794;2023-11-18T02:04:30;2.20;;;2.00;;
60867;SDS011;46702;48.370;10.794;2023-11-18T02:06:56;1.83;;;1.73;;
60867;SDS011;46702;48.370;10.794;2023-11-18T02:09:28;2.40;;;1.75;;
60867;SDS011;46702;48.370;10.794;2023-11-18T02:14:29;2.08;;;1.60;;
60867;SDS011;46702;48.370;10.794;2023-11-18T02:17:02;2.42;;;1.77;;
60867;SDS011;46702;48.370;10.794;2023-11-18T02:19:33;2.00;;;1.90;;
60867;SDS011;46702;48.370;10.794;2023-11-18T02:22:08;2.10;;;1.85;;
60867;SDS011;46702;48.370;10.794;2023-11-18T02:24:39;1.70;;;1.60;;
60867;SDS011;46702;48.370;10.794;2023-11-18T02:27:06;2.00;;;1.80;;
60867;SDS011;46702;48.370;10.794;2023-11-18T02:29:39;2.63;;;2.03;;
60867;SDS011;46702;48.370;10.794;2023-11-18T02:35:05;2.22;;;1.95;;
60867;SDS011;46702;48.370;10.794;2023-11-18T02:37:49;2.35;;;2.15;;
60867;SDS011;46702;48.370;10.794;2023-11-18T02:40:25;2.35;;;2.17;;
60867;SDS011;46702;48.370;10.794;2023-11-18T02:42:58;4.10;;;2.22;;
60867;SDS011;46702;48.370;10.794;2023-11-18T02:45:28;2.20;;;2.00;;
60867;SDS011;46702;48.370;10.794;2023-11-18T02:47:57;1.88;;;1.73;;
60867;SDS011;46702;48.370;10.794;2023-11-18T02:50:26;2.38;;;2.17;;
60867;SDS011;46702;48.370;10.794;2023-11-18T02:52:54;2.67;;;1.85;;
60867;SDS011;46702;48.370;10.794;2023-11-18T02:55:21;2.22;;;2.10;;
60867;SDS011;46702;48.370;10.794;2023-11-18T02:57:51;2.40;;;2.28;;
60867;SDS011;46702;48.370;10.794;2023-11-18T03:00:22;2.47;;;2.17;;
60867;SDS011;46702;48.370;10.794;2023-11-18T03:02:48;1.75;;;1.65;;
60867;SDS011;46702;48.370;10.794;2023-11-18T03:05:15;3.47;;;2.58;;
60867;SDS011;46702;48.370;10.794;2023-11-18T03:07:47;3.55;;;2.75;;
60867;SDS011;46702;48.370;10.794;2023-11-18T03:10:21;2.97;;;2.60;;
60867;SDS011;46702;48.370;10.794;2023-11-18T03:12:47;2.00;;;1.88;;
60867;SDS011;46702;48.370;10.794;2023-11-18T03:15:25;3.65;;;2.75;;
60867;SDS011;46702;48.370;10.794;2023-11-18T03:17:57;2.78;;;2.58;;
60867;SDS011;46702;48.370;10.794;2023-11-18T03:22:48;2.45;;;2.22;;
60867;SDS011;46702;48.370;10.794;2023-11-18T03:25:24;2.75;;;2.50;;
60867;SDS011;46702;48.370;10.794;2023-11-18T03:27:50;1.90;;;1.80;;
60867;SDS011;46702;48.370;10.794;2023-11-18T03:30:19;2.45;;;2.25;;
60867;SDS011;46702;48.370;10.794;2023-11-18T03:32:51;2.33;;;2.13;;
60867;SDS011;46702;48.370;10.794;2023-11-18T03:35:16;2.65;;;2.40;;
60867;SDS011;46702;48.370;10.794;2023-11-18T03:37:42;2.42;;;2.17;;
60867;SDS011;46702;48.370;10.794;2023-11-18T03:40:08;2.78;;;2.35;;
60867;SDS011;46702;48.370;10.794;2023-11-18T03:42:36;4.10;;;2.70;;
60867;SDS011;46702;48.370;10.794;2023-11-18T03:45:02;2.90;;;2.30;;
60867;SDS011;46702;48.370;10.794;2023-11-18T03:47:29;4.00;;;2.53;;
60867;SDS011;46702;48.370;10.794;2023-11-18T03:49:56;3.25;;;2.65;;
60867;SDS011;46702;48.370;10.794;2023-11-18T03:52:25;3.40;;;3.08;;
60867;SDS011;46702;48.370;10.794;2023-11-18T03:54:52;3.45;;;2.60;;
60867;SDS011;46702;48.370;10.794;2023-11-18T03:57:21;3.40;;;2.40;;
60867;SDS011;46702;48.370;10.794;2023-11-18T03:59:47;3.30;;;2.60;;
60867;SDS011;46702;48.370;10.794;2023-11-18T04:02:15;4.15;;;2.25;;
60867;SDS011;46702;48.370;10.794;2023-11-18T04:04:40;2.95;;;2.17;;
60867;SDS011;46702;48.370;10.794;2023-11-18T04:07:06;4.15;;;2.72;;
60867;SDS011;46702;48.370;10.794;2023-11-18T04:09:34;3.03;;;2.50;;
60867;SDS011;46702;48.370;10.794;2023-11-18T04:12:00;3.17;;;2.80;;
60867;SDS011;46702;48.370;10.794;2023-11-18T04:14:25;2.13;;;1.92;;
60867;SDS011;46702;48.370;10.794;2023-11-18T04:16:54;4.47;;;2.63;;
60867;SDS011;46702;48.370;10.794;2023-11-18T04:21:48;3.58;;;2.33;;
60867;SDS011;46702;48.370;10.794;2023-11-18T04:24:15;6.05;;;2.92;;
60867;SDS011;46702;48.370;10.794;2023-11-18T04:26:41;4.18;;;2.60;;
60867;SDS011;46702;48.370;10.794;2023-11-18T04:29:07;2.75;;;2.55;;
60867;SDS011;46702;48.370;10.794;2023-11-18T04:31:39;2.67;;;2.47;;
60867;SDS011;46702;48.370;10.794;2023-11-18T04:34:05;3.00;;;2.70;;
60867;SDS011;46702;48.370;10.794;2023-11-18T04:36:31;4.18;;;2.65;;
60867;SDS011;46702;48.370;10.794;2023-11-18T04:38:57;3.10;;;2.42;;
60867;SDS011;46702;48.370;10.794;2023-11-18T04:41:26;3.45;;;2.90;;
60867;SDS011;46702;48.370;10.794;2023-11-18T04:43:52;2.60;;;2.28;;
60867;SDS011;46702;48.370;10.794;2023-11-18T04:46:25;3.05;;;2.50;;
60867;SDS011;46702;48.370;10.794;2023-11-18T04:48:50;3.15;;;2.60;;
60867;SDS011;46702;48.370;10.794;2023-11-18T04:51:18;3.28;;;2.72;;
60867;SDS011;46702;48.370;10.794;2023-11-18T04:53:50;3.78;;;2.65;;
60867;SDS011;46702;48.370;10.794;2023-11-18T04:58:43;3.20;;;2.75;;
60867;SDS011;46702;48.370;10.794;2023-11-18T05:03:43;2.42;;;2.22;;
60867;SDS011;46702;48.370;10.794;2023-11-18T05:06:09;3.13;;;2.60;;
60867;SDS011;46702;48.370;10.794;2023-11-18T05:08:35;3.13;;;2.88;;
60867;SDS011;46702;48.370;10.794;2023-11-18T05:11:01;2.47;;;2.28;;
60867;SDS011;46702;48.370;10.794;2023-11-18T05:13:40;3.67;;;3.13;;
60867;SDS011;46702;48.370;10.794;2023-11-18T05:16:06;4.45;;;3.13;;
60867;SDS011;46702;48.370;10.794;2023-11-18T05:18:36;2.75;;;2.55;;
60867;SDS011;46702;48.370;10.794;2023-11-18T05:21:06;3.40;;;3.08;;
60867;SDS011;46702;48.370;10.794;2023-11-18T05:23:36;3.38;;;2.90;;
60867;SDS011;46702;48.370;10.794;2023-11-18T05:26:01;3.40;;;2.97;;
60867;SDS011;46702;48.370;10.794;2023-11-18T05:28:34;3.13;;;2.53;;
60867;SDS011;46702;48.370;10.794;2023-11-18T05:31:00;3.17;;;2.65;;
60867;SDS011;46702;48.370;10.794;2023-11-18T05:33:27;4.13;;;2.85;;
60867;SDS011;46702;48.370;10.794;2023-11-18T05:35:53;3.28;;;2.70;;
60867;SDS011;46702;48.370;10.794;2023-11-18T05:38:25;3.97;;;2.67;;
60867;SDS011;46702;48.370;10.794;2023-11-18T05:40:52;2.88;;;2.58;;
60867;SDS011;46702;48.370;10.794;2023-11-18T05:43:27;2.67;;;2.47;;
60867;SDS011;46702;48.370;10.794;2023-11-18T05:46:05;3.15;;;2.72;;
60867;SDS011;46702;48.370;10.794;2023-11-18T05:48:49;4.40;;;2.90;;
60867;SDS011;46702;48.370;10.794;2023-11-18T05:51:19;3.85;;;2.85;;
60867;SDS011;46702;48.370;10.794;2023-11-18T05:53:51;2.80;;;2.33;;
60867;SDS011;46702;48.370;10.794;2023-11-18T05:56:21;3.85;;;2.72;;
60867;SDS011;46702;48.370;10.794;2023-11-18T05:58:50;3.92;;;3.03;;
60867;SDS011;46702;48.370;10.794;2023-11-18T06:01:20;6.93;;;3.00;;
60867;SDS011;46702;48.370;10.794;2023-11-18T06:03:46;3.42;;;2.67;;
60867;SDS011;46702;48.370;10.794;2023-11-18T06:06:12;3.17;;;2.47;;
60867;SDS011;46702;48.370;10.794;2023-11-18T06:08:41;3.38;;;3.08;;
60867;SDS011;46702;48.370;10.794;2023-11-18T06:11:08;4.57;;;3.25;;
60867;SDS011;46702;48.370;10.794;2023-11-18T06:16:21;8.75;;;3.30;;
60867;SDS011;46702;48.370;10.794;2023-11-18T06:18:53;5.55;;;3.88;;
60867;SDS011;46702;48.370;10.794;2023-11-18T06:21:20;6.78;;;4.90;;
60867;SDS011;46702;48.370;10.794;2023-11-18T06:23:53;4.30;;;3.83;;
60867;SDS011;46702;48.370;10.794;2023-11-18T06:26:22;4.28;;;3.40;;
60867;SDS011;46702;48.370;10.794;2023-11-18T06:28:52;3.92;;;2.92;;
60867;SDS011;46702;48.370;10.794;2023-11-18T06:31:27;4.32;;;3.20;;
60867;SDS011;46702;48.370;10.794;2023-11-18T06:33:54;4.50;;;2.83;;
60867;SDS011;46702;48.370;10.794;2023-11-18T06:36:23;3.20;;;2.90;;
60867;SDS011;46702;48.370;10.794;2023-11-18T06:38:52;4.55;;;3.20;;
60867;SDS011;46702;48.370;10.794;2023-11-18T06:41:19;4.38;;;3.08;;
60867;SDS011;46702;48.370;10.794;2023-11-18T06:43:48;4.72;;;3.38;;
60867;SDS011;46702;48.370;10.794;2023-11-18T06:46:21;4.00;;;3.53;;
60867;SDS011;46702;48.370;10.794;2023-11-18T06:48:49;6.82;;;3.75;;
60867;SDS011;46702;48.370;10.794;2023-11-18T06:51:19;4.82;;;2.85;;
60867;SDS011;46702;48.370;10.794;2023-11-18T06:53:52;4.18;;;3.10;;
60867;SDS011;46702;48.370;10.794;2023-11-18T06:56:26;3.10;;;2.63;;
60867;SDS011;46702;48.370;10.794;2023-11-18T06:58:58;4.63;;;3.65;;
60867;SDS011;46702;48.370;10.794;2023-11-18T07:03:57;4.28;;;3.10;;
60867;SDS011;46702;48.370;10.794;2023-11-18T07:06:23;4.13;;;3.15;;
60867;SDS011;46702;48.370;10.794;2023-11-18T07:08:51;3.70;;;3.38;;
60867;SDS011;46702;48.370;10.794;2023-11-18T07:11:21;3.85;;;3.40;;
60867;SDS011;46702;48.370;10.794;2023-11-18T07:13:47;3.13;;;2.85;;
60867;SDS011;46702;48.370;10.794;2023-11-18T07:16:21;4.90;;;3.33;;
60867;SDS011;46702;48.370;10.794;2023-11-18T07:18:51;5.30;;;3.80;;
60867;SDS011;46702;48.370;10.794;2023-11-18T07:21:20;5.85;;;3.97;;
60867;SDS011;46702;48.370;10.794;2023-11-18T07:23:46;4.25;;;3.47;;
60867;SDS011;46702;48.370;10.794;2023-11-18T07:26:15;4.03;;;3.50;;
60867;SDS011;46702;48.370;10.794;2023-11-18T07:28:41;6.55;;;4.20;;
60867;SDS011;46702;48.370;10.794;2023-11-18T07:31:09;5.00;;;4.13;;
60867;SDS011;46702;48.370;10.794;2023-11-18T07:33:35;4.18;;;3.33;;
60867;SDS011;46702;48.370;10.794;2023-11-18T07:36:04;5.72;;;4.15;;
60867;SDS011;46702;48.370;10.794;2023-11-18T07:38:31;4.55;;;3.40;;
60867;SDS011;46702;48.370;10.794;2023-11-18T07:41:00;6.15;;;4.97;;
60867;SDS011;46702;48.370;10.794;2023-11-18T07:43:27;9.87;;;5.70;;
60867;SDS011;46702;48.370;10.794;2023-11-18T07:46:01;6.03;;;4.53;;
60867;SDS011;46702;48.370;10.794;2023-11-18T07:48:28;5.85;;;3.85;;
60867;SDS011;46702;48.370;10.794;2023-11-18T07:50:56;5.43;;;4.30;;
60867;SDS011;46702;48.370;10.794;2023-11-18T07:53:28;5.72;;;3.47;;
60867;SDS011;46702;48.370;10.794;2023-11-18T07:55:55;5.28;;;4.05;;
60867;SDS011;46702;48.370;10.794;2023-11-18T07:58:27;7.03;;;3.75;;
60867;SDS011;46702;48.370;10.794;2023-11-18T08:00:56;4.97;;;3.65;;
60867;SDS011;46702;48.370;10.794;2023-11-18T08:03:24;5.35;;;3.50;;
60867;SDS011;46702;48.370;10.794;2023-11-18T08:05:50;5.80;;;3.85;;
60867;SDS011;46702;48.370;10.794;2023-11-18T08:08:16;4.10;;;3.40;;
60867;SDS011;46702;48.370;10.794;2023-11-18T08:10:46;5.13;;;3.55;;
60867;SDS011;46702;48.370;10.794;2023-11-18T08:13:13;6.55;;;3.70;;
60867;SDS011;46702;48.370;10.794;2023-11-18T08:15:39;5.05;;;3.50;;
60867;SDS011;46702;48.370;10.794;2023-11-18T08:18:26;4.10;;;3.30;;
60867;SDS011;46702;48.370;10.794;2023-11-18T08:20:53;5.82;;;4.00;;
60867;SDS011;46702;48.370;10.794;2023-11-18T08:23:18;4.15;;;3.40;;
60867;SDS011;46702;48.370;10.794;2023-11-18T08:25:47;5.20;;;3.50;;
60867;SDS011;46702;48.370;10.794;2023-11-18T08:28:14;5.70;;;3.65;;
60867;SDS011;46702;48.370;10.794;2023-11-18T08:30:41;6.78;;;3.63;;
60867;SDS011;46702;48.370;10.794;2023-11-18T08:33:07;6.30;;;3.70;;
60867;SDS011;46702;48.370;10.794;2023-11-18T08:35:55;6.72;;;4.70;;
60867;SDS011;46702;48.370;10.794;2023-11-18T08:38:21;6.70;;;3.85;;
60867;SDS011;46702;48.370;10.794;2023-11-18T08:40:53;6.40;;;3.80;;
60867;SDS011;46702;48.370;10.794;2023-11-18T08:43:41;5.88;;;4.00;;
60867;SDS011;46702;48.370;10.794;2023-11-18T08:46:12;5.07;;;4.03;;
60867;SDS011;46702;48.370;10.794;2023-11-18T08:48:39;8.63;;;4.18;;
60867;SDS011;46702;48.370;10.794;2023-11-18T08:51:11;5.38;;;4.15;;
60867;SDS011;46702;48.370;10.794;2023-11-18T08:53:41;6.25;;;3.97;;
60867;SDS011;46702;48.370;10.794;2023-11-18T08:58:40;5.88;;;3.88;;
60867;SDS011;46702;48.370;10.794;2023-11-18T09:01:17;4.70;;;3.45;;
60867;SDS011;46702;48.370;10.794;2023-11-18T09:03:42;6.25;;;4.18;;
60867;SDS011;46702;48.370;10.794;2023-11-18T09:06:13;6.22;;;4.55;;
60867;SDS011;46702;48.370;10.794;2023-11-18T09:08:49;6.07;;;3.83;;
60867;SDS011;46702;48.370;10.794;2023-11-18T09:11:41;4.65;;;3.65;;
60867;SDS011;46702;48.370;10.794;2023-11-18T09:14:07;4.95;;;4.05;;
60867;SDS011;46702;48.370;10.794;2023-11-18T09:16:39;5.75;;;4.03;;
60867;SDS011;46702;48.370;10.794;2023-11-18T09:19:06;5.60;;;3.97;;
60867;SDS011;46702;48.370;10.794;2023-11-18T09:21:39;5.32;;;3.75;;
60867;SDS011;46702;48.370;10.794;2023-11-18T09:24:14;5.55;;;4.05;;
60867;SDS011;46702;48.370;10.794;2023-11-18T09:26:55;3.83;;;3.42;;
60867;SDS011;46702;48.370;10.794;2023-11-18T09:29:42;3.42;;;3.13;;
60867;SDS011;46702;48.370;10.794;2023-11-18T09:39:49;4.38;;;3.58;;
60867;SDS011;46702;48.370;10.794;2023-11-18T10:00:29;4.10;;;2.95;;
60867;SDS011;46702;48.370;10.794;2023-11-18T10:03:44;5.30;;;3.50;;
60867;SDS011;46702;48.370;10.794;2023-11-18T10:06:14;3.53;;;3.08;;
60867;SDS011;46702;48.370;10.794;2023-11-18T10:08:42;4.07;;;2.97;;
60867;SDS011;46702;48.370;10.794;2023-11-18T10:11:22;3.42;;;3.10;;
60867;SDS011;46702;48.370;10.794;2023-11-18T10:13:48;5.90;;;3.72;;
60867;SDS011;46702;48.370;10.794;2023-11-18T10:16:20;3.75;;;3.28;;
60867;SDS011;46702;48.370;10.794;2023-11-18T10:18:56;4.65;;;3.40;;
60867;SDS011;46702;48.370;10.794;2023-11-18T10:21:35;3.88;;;3.15;;
60867;SDS011;46702;48.370;10.794;2023-11-18T10:24:05;3.95;;;3.17;;
60867;SDS011;46702;48.370;10.794;2023-11-18T10:36:39;3.15;;;2.70;;
60867;SDS011;46702;48.370;10.794;2023-11-18T10:39:06;2.75;;;2.55;;
60867;SDS011;46702;48.370;10.794;2023-11-18T10:41:49;3.28;;;2.83;;
60867;SDS011;46702;48.370;10.794;2023-11-18T10:48:49;3.80;;;3.10;;
60867;SDS011;46702;48.370;10.794;2023-11-18T10:51:21;4.78;;;3.53;;
60867;SDS011;46702;48.370;10.794;2023-11-18T10:54:06;4.88;;;3.35;;
60867;SDS011;46702;48.370;10.794;2023-11-18T10:57:00;4.43;;;3.45;;
60867;SDS011;46702;48.370;10.794;2023-11-18T11:03:00;3.30;;;3.00;;
60867;SDS011;46702;48.370;10.794;2023-11-18T11:09:34;2.53;;;2.33;;
60867;SDS011;46702;48.370;10.794;2023-11-18T11:27:25;3.25;;;2.42;;
60867;SDS011;46702;48.370;10.794;2023-11-18T11:33:43;3.25;;;2.25;;
60867;SDS011;46702;48.370;10.794;2023-11-18T11:36:54;2.00;;;1.77;;
60867;SDS011;46702;48.370;10.794;2023-11-18T11:40:16;2.30;;;2.10;;
60867;SDS011;46702;48.370;10.794;2023-11-18T11:46:22;2.45;;;1.80;;
60867;SDS011;46702;48.370;10.794;2023-11-18T12:02:49;2.50;;;2.15;;
60867;SDS011;46702;48.370;10.794;2023-11-18T13:10:37;2.22;;;2.00;;
60867;SDS011;46702;48.370;10.794;2023-11-18T13:17:19;2.50;;;2.30;;
60867;SDS011;46702;48.370;10.794;2023-11-18T13:19:48;2.45;;;1.85;;
60867;SDS011;46702;48.370;10.794;2023-11-18T13:23:08;2.67;;;1.55;;
60867;SDS011;46702;48.370;10.794;2023-11-18T13:26:25;1.75;;;1.63;;
60867;SDS011;46702;48.370;10.794;2023-11-18T13:29:43;1.92;;;1.75;;
60867;SDS011;46702;48.370;10.794;2023-11-18T13:33:03;2.25;;;1.92;;
60867;SDS011;46702;48.370;10.794;2023-11-18T13:39:00;1.48;;;1.38;;
60867;SDS011;46702;48.370;10.794;2023-11-18T14:05:17;2.05;;;1.70;;
60867;SDS011;46702;48.370;10.794;2023-11-18T14:07:51;4.43;;;1.75;;
60867;SDS011;46702;48.370;10.794;2023-11-18T14:10:36;1.70;;;1.60;;
60867;SDS011;46702;48.370;10.794;2023-11-18T14:13:46;1.52;;;1.42;;
60867;SDS011;46702;48.370;10.794;2023-11-18T14:16:33;1.35;;;1.25;;
60867;SDS011;46702;48.370;10.794;2023-11-18T14:19:26;2.05;;;1.60;;
60867;SDS011;46702;48.370;10.794;2023-11-18T14:21:53;1.38;;;1.30;;
60867;SDS011;46702;48.370;10.794;2023-11-18T14:24:19;1.30;;;1.20;;
60867;SDS011;46702;48.370;10.794;2023-11-18T14:26:48;1.90;;;1.40;;
60867;SDS011;46702;48.370;10.794;2023-11-18T14:29:15;1.40;;;1.30;;
60867;SDS011;46702;48.370;10.794;2023-11-18T14:31:41;1.40;;;1.30;;
60867;SDS011;46702;48.370;10.794;2023-11-18T14:34:10;2.42;;;1.33;;
60867;SDS011;46702;48.370;10.794;2023-11-18T14:36:36;1.90;;;1.70;;
60867;SDS011;46702;48.370;10.794;2023-11-18T14:39:05;1.55;;;1.45;;
60867;SDS011;46702;48.370;10.794;2023-11-18T14:41:34;3.90;;;1.83;;
60867;SDS011;46702;48.370;10.794;2023-11-18T14:44:01;2.40;;;2.20;;
60867;SDS011;46702;48.370;10.794;2023-11-18T14:46:29;1.88;;;1.77;;
60867;SDS011;46702;48.370;10.794;2023-11-18T14:48:58;1.80;;;1.70;;
60867;SDS011;46702;48.370;10.794;2023-11-18T14:51:24;2.40;;;1.83;;
60867;SDS011;46702;48.370;10.794;2023-11-18T14:53:53;4.55;;;2.20;;
60867;SDS011;46702;48.370;10.794;2023-11-18T14:56:19;3.17;;;2.30;;
60867;SDS011;46702;48.370;10.794;2023-11-18T14:58:47;2.58;;;1.98;;
60867;SDS011;46702;48.370;10.794;2023-11-18T15:01:19;3.80;;;2.10;;
60867;SDS011;46702;48.370;10.794;2023-11-18T15:06:50;4.03;;;1.90;;
60867;SDS011;46702;48.370;10.794;2023-11-18T15:09:21;2.78;;;2.20;;
60867;SDS011;46702;48.370;10.794;2023-11-18T15:11:57;3.17;;;1.92;;
60867;SDS011;46702;48.370;10.794;2023-11-18T15:14:24;1.90;;;1.80;;
60867;SDS011;46702;48.370;10.794;2023-11-18T15:16:54;2.60;;;2.00;;
60867;SDS011;46702;48.370;10.794;2023-11-18T15:19:20;1.73;;;1.52;;
60867;SDS011;46702;48.370;10.794;2023-11-18T15:21:46;2.67;;;1.83;;
60867;SDS011;46702;48.370;10.794;2023-11-18T15:24:12;2.33;;;1.67;;
60867;SDS011;46702;48.370;10.794;2023-11-18T15:26:42;2.75;;;1.77;;
60867;SDS011;46702;48.370;10.794;2023-11-18T15:29:08;2.50;;;1.90;;
60867;SDS011;46702;48.370;10.794;2023-11-18T15:31:39;3.60;;;2.40;;
60867;SDS011;46702;48.370;10.794;2023-11-18T15:34:10;3.45;;;1.88;;
60867;SDS011;46702;48.370;10.794;2023-11-18T15:36:41;3.92;;;2.55;;
60867;SDS011;46702;48.370;10.794;2023-11-18T15:39:07;3.70;;;2.45;;
60867;SDS011;46702;48.370;10.794;2023-11-18T15:41:33;4.82;;;2.22;;
60867;SDS011;46702;48.370;10.794;2023-11-18T15:44:00;3.88;;;1.80;;
60867;SDS011;46702;48.370;10.794;2023-11-18T15:46:28;2.47;;;2.27;;
60867;SDS011;46702;48.370;10.794;2023-11-18T15:48:54;2.88;;;1.70;;
60867;SDS011;46702;48.370;10.794;2023-11-18T15:51:20;1.92;;;1.70;;
60867;SDS011;46702;48.370;10.794;2023-11-18T15:53:47;2.20;;;2.03;;
60867;SDS011;46702;48.370;10.794;2023-11-18T15:56:13;4.22;;;2.08;;
60867;SDS011;46702;48.370;10.794;2023-11-18T15:58:40;2.83;;;2.33;;
60867;SDS011;46702;48.370;10.794;2023-11-18T16:01:09;5.38;;;2.42;;
60867;SDS011;46702;48.370;10.794;2023-11-18T16:03:34;4.07;;;2.70;;
60867;SDS011;46702;48.370;10.794;2023-11-18T16:06:03;4.18;;;3.08;;
60867;SDS011;46702;48.370;10.794;2023-11-18T16:08:29;4.20;;;2.60;;
60867;SDS011;46702;48.370;10.794;2023-11-18T16:10:55;3.20;;;2.60;;
60867;SDS011;46702;48.370;10.794;2023-11-18T16:13:20;4.93;;;3.10;;
60867;SDS011;46702;48.370;10.794;2023-11-18T16:15:46;4.07;;;3.30;;
60867;SDS011;46702;48.370;10.794;2023-11-18T16:18:12;4.03;;;3.40;;
60867;SDS011;46702;48.370;10.794;2023-11-18T16:20:38;5.20;;;3.28;;
60867;SDS011;46702;48.370;10.794;2023-11-18T16:23:04;3.45;;;2.92;;
60867;SDS011;46702;48.370;10.794;2023-11-18T16:25:30;4.10;;;3.05;;
60867;SDS011;46702;48.370;10.794;2023-11-18T16:27:57;2.78;;;2.45;;
60867;SDS011;46702;48.370;10.794;2023-11-18T16:30:24;4.57;;;2.90;;
60867;SDS011;46702;48.370;10.794;2023-11-18T16:32:54;4.40;;;3.10;;
60867;SDS011;46702;48.370;10.794;2023-11-18T16:35:27;5.22;;;3.00;;
60867;SDS011;46702;48.370;10.794;2023-11-18T16:38:01;5.45;;;3.70;;
60867;SDS011;46702;48.370;10.794;2023-11-18T16:40:36;4.25;;;3.63;;
60867;SDS011;46702;48.370;10.794;2023-11-18T16:43:02;4.30;;;3.30;;
60867;SDS011;46702;48.370;10.794;2023-11-18T16:45:28;5.40;;;3.40;;
60867;SDS011;46702;48.370;10.794;2023-11-18T16:47:54;6.75;;;3.63;;
60867;SDS011;46702;48.370;10.794;2023-11-18T16:50:20;4.05;;;3.35;;
60867;SDS011;46702;48.370;10.794;2023-11-18T16:52:47;5.63;;;3.53;;
60867;SDS011;46702;48.370;10.794;2023-11-18T16:55:13;3.83;;;3.40;;
60867;SDS011;46702;48.370;10.794;2023-11-18T16:57:39;5.43;;;3.90;;
60867;SDS011;46702;48.370;10.794;2023-11-18T17:00:05;5.68;;;4.22;;
60867;SDS011;46702;48.370;10.794;2023-11-18T17:02:42;5.50;;;4.38;;
60867;SDS011;46702;48.370;10.794;2023-11-18T17:05:08;7.13;;;4.75;;
60867;SDS011;46702;48.370;10.794;2023-11-18T17:07:34;5.35;;;4.20;;
60867;SDS011;46702;48.370;10.794;2023-11-18T17:10:00;6.50;;;4.38;;
60867;SDS011;46702;48.370;10.794;2023-11-18T17:12:25;6.07;;;4.20;;
60867;SDS011;46702;48.370;10.794;2023-11-18T17:14:51;5.93;;;3.83;;
60867;SDS011;46702;48.370;10.794;2023-11-18T17:17:17;7.85;;;4.40;;
60867;SDS011;46702;48.370;10.794;2023-11-18T17:19:43;8.00;;;4.60;;
60867;SDS011;46702;48.370;10.794;2023-11-18T17:22:09;5.30;;;3.83;;
60867;SDS011;46702;48.370;10.794;2023-11-18T17:24:38;7.05;;;4.10;;
60867;SDS011;46702;48.370;10.794;2023-11-18T17:27:05;6.22;;;4.07;;
60867;SDS011;46702;48.370;10.794;2023-11-18T17:29:32;4.30;;;3.35;;
60867;SDS011;46702;48.370;10.794;2023-11-18T17:31:58;6.03;;;4.68;;
60867;SDS011;46702;48.370;10.794;2023-11-18T17:34:24;6.50;;;4.82;;
60867;SDS011;46702;48.370;10.794;2023-11-18T17:36:52;5.47;;;3.95;;
60867;SDS011;46702;48.370;10.794;2023-11-18T17:39:18;5.50;;;3.53;;
60867;SDS011;46702;48.370;10.794;2023-11-18T17:41:43;3.35;;;2.75;;
60867;SDS011;46702;48.370;10.794;2023-11-18T17:44:12;3.10;;;2.80;;
60867;SDS011;46702;48.370;10.794;2023-11-18T17:46:59;3.47;;;3.10;;
60867;SDS011;46702;48.370;10.794;2023-11-18T17:53:04;3.35;;;2.47;;
60867;SDS011;46702;48.370;10.794;2023-11-18T17:55:50;4.07;;;3.00;;
60867;SDS011;46702;48.370;10.794;2023-11-18T17:58:19;7.05;;;5.10;;
60867;SDS011;46702;48.370;10.794;2023-11-18T18:00:48;3.67;;;2.40;;
60867;SDS011;46702;48.370;10.794;2023-11-18T18:03:19;2.70;;;2.50;;
60867;SDS011;46702;48.370;10.794;2023-11-18T18:05:53;3.95;;;2.72;;
60867;SDS011;46702;48.370;10.794;2023-11-18T18:08:41;14.85;;;5.15;;
60867;SDS011;46702;48.370;10.794;2023-11-18T18:11:10;14.68;;;5.70;;
60867;SDS011;46702;48.370;10.794;2023-11-18T18:13:36;32.40;;;14.20;;
60867;SDS011;46702;48.370;10.794;2023-11-18T18:16:02;20.52;;;7.93;;
60867;SDS011;46702;48.370;10.794;2023-11-18T18:18:31;5.47;;;3.50;;
60867;SDS011;46702;48.370;10.794;2023-11-18T18:21:00;3.13;;;2.63;;
60867;SDS011;46702;48.370;10.794;2023-11-18T18:23:25;5.10;;;2.50;;
60867;SDS011;46702;48.370;10.794;2023-11-18T18:25:53;2.78;;;1.90;;